Terminal Aerodrome Forecast
Issued by NWS

Home | Current Version | Previous Version | Graphics & Text | Print | Product List | Glossary On
Versions: 1 2 3 4 5 6 7 8 9 10 11 12 13 14 15 16 17 18 19 20 21 22 23 24 25
000
FTUS43 KABR 232300
TAFMBG
TAF
KMBG 232325Z 2400/2424 13018G24KT P6SM BKN100
     FM240200 11014KT P6SM BKN100
     FM240700 11008KT P6SM VCSH OVC050
     FM241700 09009KT P6SM BKN050=

USA.gov is the U.S. government's official web portal to all federal, state and local government web resources and services.